createdAt,value
2019-05-26T00:02:09.463Z,26.97
2019-05-26T00:04:39.575Z,26.50
2019-05-26T00:07:09.680Z,34.58
2019-05-26T00:09:39.775Z,32.80
2019-05-26T00:12:09.848Z,29.37
2019-05-26T00:14:39.965Z,27.55
2019-05-26T00:17:09.980Z,33.05
2019-05-26T00:19:39.969Z,34.63
2019-05-26T00:22:10.055Z,32.28
2019-05-26T00:24:40.064Z,36.75
2019-05-26T00:27:10.243Z,35.08
2019-05-26T00:29:40.255Z,41.13
2019-05-26T00:32:10.304Z,36.03
2019-05-26T00:34:40.404Z,39.88
2019-05-26T00:37:10.530Z,40.78
2019-05-26T00:39:40.607Z,41.65
2019-05-26T00:42:10.758Z,37.95
2019-05-26T00:44:40.860Z,35.48
2019-05-26T00:47:10.952Z,43.20
2019-05-26T00:49:41.064Z,42.00
2019-05-26T00:52:11.143Z,43.25
2019-05-26T00:54:41.279Z,40.70
2019-05-26T00:57:11.367Z,41.95
2019-05-26T00:59:41.411Z,44.15
2019-05-26T01:02:12.627Z,41.30
2019-05-26T01:04:43.711Z,41.95
2019-05-26T01:07:13.835Z,34.73
2019-05-26T01:09:43.885Z,42.20
2019-05-26T01:12:13.892Z,43.35
2019-05-26T01:14:44.322Z,42.65
2019-05-26T01:17:15.855Z,42.85
2019-05-26T01:19:45.960Z,40.58
2019-05-26T01:22:15.981Z,47.55
2019-05-26T01:24:46.183Z,46.20
2019-05-26T01:27:16.175Z,46.20
2019-05-26T01:29:46.264Z,38.05
2019-05-26T01:32:16.389Z,44.80
2019-05-26T01:34:46.463Z,40.85
2019-05-26T01:37:16.576Z,40.12
2019-05-26T01:39:46.636Z,44.65
2019-05-26T01:42:16.638Z,40.03
2019-05-26T01:44:46.704Z,40.45
2019-05-26T01:47:16.726Z,43.38
2019-05-26T01:49:46.813Z,38.95
2019-05-26T01:52:16.852Z,39.73
2019-05-26T01:54:46.866Z,37.95
2019-05-26T01:57:16.975Z,33.92
2019-05-26T01:59:47.063Z,31.25
2019-05-26T02:02:17.265Z,31.62
2019-05-26T02:04:47.407Z,26.02
2019-05-26T02:07:17.531Z,23.40
2019-05-26T02:09:47.688Z,22.55
2019-05-26T02:12:17.742Z,17.32
2019-05-26T02:14:47.755Z,23.27
2019-05-26T02:17:17.801Z,20.37
2019-05-26T02:19:47.747Z,17.15
2019-05-26T02:22:17.762Z,14.15
2019-05-26T02:24:47.730Z,16.82
2019-05-26T02:27:17.815Z,16.10
2019-05-26T02:29:47.863Z,13.93
2019-05-26T02:32:17.892Z,15.00
2019-05-26T02:34:47.923Z,17.55
2019-05-26T02:37:18.005Z,14.07
2019-05-26T02:39:48.054Z,16.23
2019-05-26T02:42:18.156Z,13.45
2019-05-26T02:44:48.167Z,15.53
2019-05-26T02:47:18.222Z,14.28
2019-05-26T02:49:48.336Z,14.33
2019-05-26T02:52:18.341Z,14.80
2019-05-26T02:54:48.399Z,15.85
2019-05-26T02:57:18.452Z,19.25
2019-05-26T02:59:48.468Z,16.27
2019-05-26T03:02:18.683Z,16.00
2019-05-26T03:04:49.170Z,17.57
2019-05-26T03:07:19.888Z,14.90
2019-05-26T03:09:51.020Z,13.45
2019-05-26T03:12:22.471Z,12.98
2019-05-26T03:14:54.891Z,13.72
2019-05-26T03:17:25.690Z,12.18
2019-05-26T03:19:58.167Z,14.53
2019-05-26T03:22:29.452Z,15.43
2019-05-26T03:25:01.041Z,17.85
2019-05-26T03:27:31.187Z,14.13
2019-05-26T03:30:01.244Z,14.05
2019-05-26T03:32:31.361Z,14.18
2019-05-26T03:35:01.408Z,13.43
2019-05-26T03:37:31.559Z,14.98
2019-05-26T03:40:02.755Z,17.82
2019-05-26T03:42:32.812Z,14.98
2019-05-26T03:45:02.999Z,13.38
2019-05-26T03:47:33.188Z,19.52
2019-05-26T03:50:07.174Z,12.73
2019-05-26T03:52:37.292Z,13.13
2019-05-26T03:55:08.168Z,12.95
2019-05-26T03:57:38.160Z,14.53
2019-05-26T04:00:08.980Z,12.63
2019-05-26T04:02:39.128Z,15.38
2019-05-26T04:05:09.820Z,15.25
2019-05-26T04:07:39.876Z,13.35
2019-05-26T04:10:10.472Z,14.55
2019-05-26T04:12:40.533Z,12.23
2019-05-26T04:15:10.732Z,15.78
2019-05-26T04:17:41.823Z,15.38
2019-05-26T04:20:12.053Z,14.58
2019-05-26T04:22:42.005Z,12.43
2019-05-26T04:25:12.192Z,11.45
2019-05-26T04:27:42.176Z,19.02
2019-05-26T04:30:12.251Z,13.80
2019-05-26T04:32:42.367Z,13.58
2019-05-26T04:35:12.452Z,12.20
2019-05-26T04:37:42.575Z,14.87
2019-05-26T04:40:26.756Z,17.65
2019-05-26T04:42:44.266Z,14.03
2019-05-26T04:45:14.645Z,13.30
2019-05-26T04:47:44.772Z,13.53
2019-05-26T04:50:15.332Z,11.35
2019-05-26T04:53:04.538Z,11.95
2019-05-26T04:55:17.084Z,14.68
2019-05-26T04:57:47.055Z,16.82
2019-05-26T05:00:17.176Z,16.25
2019-05-26T05:02:47.193Z,15.25
2019-05-26T05:05:17.424Z,11.68
2019-05-26T05:07:47.535Z,14.15
2019-05-26T05:10:17.628Z,12.95
2019-05-26T05:13:08.468Z,13.55
2019-05-26T05:15:38.587Z,12.05
2019-05-26T05:18:08.732Z,12.00
2019-05-26T05:20:39.073Z,14.90
2019-05-26T05:23:09.268Z,16.50
2019-05-26T05:25:39.427Z,23.85
2019-05-26T05:28:09.565Z,15.93
2019-05-26T05:30:39.761Z,12.58
2019-05-26T05:33:09.860Z,11.63
2019-05-26T05:35:40.675Z,17.05
2019-05-26T05:38:10.775Z,9.73
2019-05-26T05:43:12.860Z,9.68
2019-05-26T05:45:42.904Z,11.38
2019-05-26T05:48:13.037Z,12.47
2019-05-26T05:50:43.116Z,9.15
2019-05-26T05:55:43.487Z,8.78
2019-05-26T05:58:13.652Z,10.43
2019-05-26T06:00:43.837Z,7.75
2019-05-26T06:03:13.913Z,8.43
2019-05-26T06:05:43.971Z,9.13
2019-05-26T06:08:14.061Z,9.35
2019-05-26T06:10:44.125Z,10.80
2019-05-26T06:13:14.276Z,10.00
2019-05-26T06:15:44.461Z,9.23
2019-05-26T06:18:14.636Z,10.85
2019-05-26T06:20:44.783Z,8.43
2019-05-26T06:23:14.894Z,9.65
2019-05-26T06:25:44.978Z,10.63
2019-05-26T06:28:15.089Z,12.40
2019-05-26T06:30:45.249Z,11.80
2019-05-26T06:33:15.372Z,11.28
2019-05-26T06:35:45.312Z,11.15
2019-05-26T06:38:15.347Z,13.22
2019-05-26T06:40:45.467Z,12.15
2019-05-26T06:43:15.576Z,11.08
2019-05-26T06:45:46.684Z,12.68
2019-05-26T06:48:16.695Z,12.10
2019-05-26T06:50:46.735Z,12.30
2019-05-26T06:53:16.832Z,13.32
2019-05-26T06:58:18.285Z,18.37
2019-05-26T07:00:48.387Z,19.15
2019-05-26T07:03:18.481Z,18.45
2019-05-26T07:05:48.736Z,21.68
2019-05-26T07:08:19.351Z,22.22
2019-05-26T07:10:49.395Z,32.17
2019-05-26T07:13:19.368Z,20.65
2019-05-26T07:15:49.448Z,18.77
2019-05-26T07:18:19.495Z,20.08
2019-05-26T07:20:49.435Z,23.32
2019-05-26T07:23:19.480Z,21.82
2019-05-26T07:25:49.490Z,21.48
2019-05-26T07:28:19.599Z,21.17
2019-05-26T07:30:49.684Z,18.02
2019-05-26T07:33:19.679Z,16.32
2019-05-26T07:35:50.011Z,17.20
2019-05-26T07:38:21.628Z,16.17
2019-05-26T07:40:51.769Z,17.12
2019-05-26T07:43:21.847Z,14.15
2019-05-26T07:45:51.970Z,13.38
2019-05-26T07:48:21.915Z,13.38
2019-05-26T07:50:51.894Z,15.65
2019-05-26T07:53:21.863Z,11.70
2019-05-26T07:55:51.941Z,11.60
2019-05-26T07:58:21.912Z,10.28
2019-05-26T08:00:52.051Z,11.25
2019-05-26T08:03:21.987Z,12.82
2019-05-26T08:05:52.020Z,9.20
2019-05-26T08:08:21.953Z,11.05
2019-05-26T08:10:51.998Z,9.13
2019-05-26T08:13:21.923Z,9.15
2019-05-26T08:15:52.035Z,9.95
2019-05-26T08:18:22.104Z,8.73
2019-05-26T08:20:52.219Z,8.80
2019-05-26T08:23:22.251Z,8.40
2019-05-26T08:25:52.263Z,8.25
2019-05-26T08:28:22.251Z,9.93
2019-05-26T08:30:52.282Z,9.85
2019-05-26T08:33:22.315Z,8.90
2019-05-26T08:35:52.319Z,8.45
2019-05-26T08:38:22.347Z,9.08
2019-05-26T08:40:52.355Z,8.68
2019-05-26T08:43:22.451Z,7.62
2019-05-26T08:45:52.423Z,7.00
2019-05-26T08:48:22.435Z,8.68
2019-05-26T08:50:52.540Z,10.28
2019-05-26T08:53:22.540Z,7.78
2019-05-26T08:55:52.640Z,8.38
2019-05-26T08:58:22.684Z,5.25
2019-05-26T09:00:52.688Z,4.97
2019-05-26T09:03:22.651Z,8.20
2019-05-26T09:05:53.760Z,5.33
2019-05-26T09:08:23.743Z,6.65
2019-05-26T09:10:53.779Z,4.20
2019-05-26T09:13:23.887Z,5.15
2019-05-26T09:15:53.886Z,4.15
2019-05-26T09:18:23.986Z,4.05
2019-05-26T09:20:53.927Z,6.22
2019-05-26T09:23:23.974Z,6.35
2019-05-26T09:25:54.047Z,4.30
2019-05-26T09:28:24.076Z,4.03
2019-05-26T09:30:54.143Z,4.17
2019-05-26T09:33:24.102Z,5.78
2019-05-26T09:35:54.129Z,5.20
2019-05-26T09:38:24.199Z,4.08
2019-05-26T09:40:54.236Z,3.65
2019-05-26T09:43:24.304Z,3.30
2019-05-26T09:45:54.331Z,4.80
2019-05-26T09:48:24.432Z,4.70
2019-05-26T09:50:54.438Z,4.22
2019-05-26T09:53:24.544Z,3.50
2019-05-26T09:55:54.548Z,3.20
2019-05-26T09:58:24.666Z,3.65
2019-05-26T10:00:55.345Z,5.08
2019-05-26T10:03:25.456Z,5.25
2019-05-26T10:05:55.463Z,7.67
2019-05-26T10:08:25.505Z,6.37
2019-05-26T10:10:55.516Z,6.20
2019-05-26T10:13:31.724Z,3.90
2019-05-26T10:15:57.208Z,4.25
2019-05-26T10:18:27.289Z,4.10
2019-05-26T10:20:57.315Z,4.37
2019-05-26T10:23:27.383Z,4.05
2019-05-26T10:25:57.419Z,5.50
2019-05-26T10:28:27.351Z,4.50
2019-05-26T10:30:57.383Z,6.22
2019-05-26T10:33:27.455Z,4.40
2019-05-26T10:35:57.562Z,6.97
2019-05-26T10:38:28.832Z,4.78
2019-05-26T10:40:58.864Z,4.60
2019-05-26T10:43:28.899Z,4.00
2019-05-26T10:45:59.005Z,4.08
2019-05-26T10:48:31.268Z,4.95
2019-05-26T10:51:01.319Z,6.15
2019-05-26T10:53:32.327Z,5.15
2019-05-26T10:56:02.376Z,4.72
2019-05-26T10:58:32.311Z,4.20
2019-05-26T11:01:02.546Z,4.47
2019-05-26T11:03:33.672Z,5.30
2019-05-26T11:06:04.076Z,7.03
2019-05-26T11:08:34.143Z,6.47
2019-05-26T11:11:04.244Z,4.65
2019-05-26T11:16:25.619Z,7.95
2019-05-26T11:18:55.687Z,6.78
2019-05-26T11:21:25.730Z,5.45
2019-05-26T11:23:55.840Z,4.28
2019-05-26T11:26:25.916Z,5.10
2019-05-26T11:31:26.215Z,5.30
2019-05-26T11:33:56.210Z,3.72
2019-05-26T11:36:26.396Z,5.58
2019-05-26T11:38:56.553Z,5.58
2019-05-26T11:41:26.705Z,3.77
2019-05-26T11:43:56.736Z,4.85
2019-05-26T11:48:57.128Z,4.35
2019-05-26T11:51:27.128Z,3.47
2019-05-26T11:53:57.088Z,4.05
2019-05-26T11:56:27.134Z,4.17
2019-05-26T11:58:57.192Z,6.00
2019-05-26T12:01:27.192Z,4.47
2019-05-26T12:03:57.239Z,4.58
2019-05-26T12:06:27.239Z,4.42
2019-05-26T12:08:57.410Z,5.65
2019-05-26T12:11:27.450Z,5.17
2019-05-26T12:13:57.552Z,6.33
2019-05-26T12:16:29.034Z,8.80
2019-05-26T12:18:59.081Z,4.75
2019-05-26T12:21:29.109Z,6.25
2019-05-26T12:24:18.444Z,6.25
2019-05-26T12:26:48.409Z,7.42
2019-05-26T12:29:18.447Z,9.98
2019-05-26T12:31:48.567Z,5.95
2019-05-26T12:34:18.599Z,6.03
2019-05-26T12:36:48.661Z,4.78
2019-05-26T12:39:18.691Z,4.55
2019-05-26T12:41:48.769Z,7.03
2019-05-26T12:44:18.868Z,7.92
2019-05-26T12:46:48.836Z,6.17
2019-05-26T12:49:18.875Z,5.22
2019-05-26T12:51:48.948Z,7.67
2019-05-26T12:54:19.117Z,5.05
2019-05-26T12:56:49.123Z,7.58
2019-05-26T12:59:19.244Z,6.55
2019-05-26T13:01:49.167Z,5.50
2019-05-26T13:04:19.282Z,7.05
2019-05-26T13:06:49.384Z,7.37
2019-05-26T13:09:19.452Z,8.35
2019-05-26T13:11:49.508Z,5.97
2019-05-26T13:14:19.512Z,6.20
2019-05-26T13:16:49.679Z,4.85
2019-05-26T13:19:21.547Z,4.87
2019-05-26T13:21:51.501Z,4.47
2019-05-26T13:24:22.739Z,6.80
2019-05-26T13:26:53.244Z,5.12
2019-05-26T13:29:25.600Z,6.70
2019-05-26T13:31:55.588Z,27.85
2019-05-26T13:34:28.821Z,7.03
2019-05-26T13:36:58.824Z,4.08
2019-05-26T13:39:28.859Z,4.22
2019-05-26T13:42:00.499Z,5.67
2019-05-26T13:44:37.491Z,10.80
2019-05-26T13:47:07.755Z,4.97
2019-05-26T13:49:37.804Z,6.00
2019-05-26T13:52:09.559Z,4.80
2019-05-26T13:54:47.132Z,4.95
2019-05-26T13:57:17.294Z,5.47
2019-05-26T13:59:50.564Z,5.17
2019-05-26T14:02:20.697Z,5.40
2019-05-26T14:04:51.953Z,6.53
2019-05-26T14:07:21.974Z,5.80
2019-05-26T14:09:52.006Z,4.65
2019-05-26T14:12:22.172Z,10.32
2019-05-26T14:14:52.890Z,8.48
2019-05-26T14:19:54.034Z,4.25
2019-05-26T14:22:23.963Z,5.42
2019-05-26T14:24:54.503Z,4.33
2019-05-26T14:27:25.926Z,3.87
2019-05-26T14:30:15.310Z,4.22
2019-05-26T14:32:45.381Z,4.22
2019-05-26T14:35:15.499Z,4.53
2019-05-26T14:37:45.536Z,4.22
2019-05-26T14:40:15.694Z,3.40
2019-05-26T14:42:45.724Z,2.93
2019-05-26T14:45:16.095Z,5.50
2019-05-26T14:47:46.072Z,3.85
2019-05-26T14:50:17.250Z,3.25
2019-05-26T14:52:47.357Z,3.02
2019-05-26T14:55:18.664Z,3.42
2019-05-26T14:57:48.772Z,4.85
2019-05-26T15:00:19.456Z,2.22
2019-05-26T15:02:49.571Z,2.60
2019-05-26T15:05:19.645Z,5.10
2019-05-26T15:07:49.681Z,2.87
2019-05-26T15:10:22.594Z,3.17
2019-05-26T15:12:53.361Z,2.95
2019-05-26T15:15:23.387Z,4.90
2019-05-26T15:17:53.437Z,2.60
2019-05-26T15:20:23.436Z,4.03
2019-05-26T15:22:53.539Z,2.87
2019-05-26T15:25:23.541Z,3.08
2019-05-26T15:27:53.602Z,2.70
2019-05-26T15:30:23.727Z,5.00
2019-05-26T15:32:53.832Z,3.63
2019-05-26T15:35:23.837Z,2.83
2019-05-26T15:37:53.941Z,5.90
2019-05-26T15:40:24.008Z,4.37
2019-05-26T15:42:54.936Z,3.62
2019-05-26T15:45:24.975Z,3.70
2019-05-26T15:47:55.008Z,6.47
2019-05-26T15:50:25.118Z,5.12
2019-05-26T15:52:55.179Z,5.42
2019-05-26T15:55:25.283Z,4.28
2019-05-26T15:57:55.284Z,5.72
2019-05-26T16:00:25.455Z,4.08
2019-05-26T16:02:55.474Z,4.37
2019-05-26T16:05:25.555Z,5.17
2019-05-26T16:07:55.556Z,3.52
2019-05-26T16:10:25.587Z,4.37
2019-05-26T16:13:00.884Z,7.05
2019-05-26T16:15:33.143Z,4.85
2019-05-26T16:18:03.315Z,5.55
2019-05-26T16:20:33.388Z,7.83
2019-05-26T16:23:03.559Z,9.45
2019-05-26T16:25:33.702Z,8.20
2019-05-26T16:28:03.868Z,6.33
2019-05-26T16:30:33.944Z,7.78
2019-05-26T16:33:04.267Z,5.95
2019-05-26T16:35:34.273Z,5.08
2019-05-26T16:38:04.394Z,4.05
2019-05-26T16:40:34.500Z,6.92
2019-05-26T16:43:04.571Z,4.10
2019-05-26T16:45:37.054Z,7.70
2019-05-26T16:48:06.231Z,5.08
2019-05-26T16:50:36.347Z,7.20
2019-05-26T16:53:07.745Z,3.40
2019-05-26T16:55:37.781Z,4.33
2019-05-26T16:58:07.855Z,6.08
2019-05-26T17:00:37.924Z,5.03
2019-05-26T17:03:08.127Z,3.40
2019-05-26T17:05:38.052Z,3.40
2019-05-26T17:08:08.146Z,3.50
2019-05-26T17:10:38.216Z,3.67
2019-05-26T17:13:08.848Z,4.08
2019-05-26T17:15:39.051Z,4.83
2019-05-26T17:18:09.310Z,5.42
2019-05-26T17:20:42.251Z,6.03
2019-05-26T17:23:12.421Z,5.17
2019-05-26T17:25:42.524Z,6.60
2019-05-26T17:28:14.779Z,4.00
2019-05-26T17:33:55.560Z,7.25
2019-05-26T17:38:54.985Z,9.15
2019-05-26T17:41:32.975Z,7.17
2019-05-26T17:44:10.535Z,6.87
2019-05-26T17:46:40.511Z,6.08
2019-05-26T17:49:10.766Z,5.47
2019-05-26T17:51:42.009Z,6.00
2019-05-26T17:54:13.222Z,8.30
2019-05-26T17:56:43.263Z,6.30
2019-05-26T17:59:13.232Z,9.55
2019-05-26T18:01:43.987Z,11.03
2019-05-26T18:04:19.814Z,7.47
2019-05-26T18:06:50.645Z,6.05
2019-05-26T18:09:20.676Z,5.62
2019-05-26T18:11:50.878Z,6.85
2019-05-26T18:14:20.948Z,6.42
2019-05-26T18:16:50.951Z,6.05
2019-05-26T18:19:22.235Z,5.80
2019-05-26T18:21:52.317Z,7.42
2019-05-26T18:24:22.427Z,6.10
2019-05-26T18:26:52.463Z,6.33
2019-05-26T18:29:22.519Z,4.20
2019-05-26T18:31:54.011Z,5.17
2019-05-26T18:34:24.090Z,4.30
2019-05-26T18:36:54.019Z,4.87
2019-05-26T18:39:23.989Z,4.87
2019-05-26T18:41:54.132Z,4.47
2019-05-26T18:44:24.099Z,7.37
2019-05-26T18:46:54.201Z,6.08
2019-05-26T18:49:25.440Z,7.12
2019-05-26T18:51:55.555Z,7.28
2019-05-26T18:54:25.623Z,5.90
2019-05-26T18:56:55.745Z,5.80
2019-05-26T18:59:25.748Z,7.95
2019-05-26T19:01:55.847Z,5.75
2019-05-26T19:04:25.923Z,6.03
2019-05-26T19:06:56.022Z,7.58
2019-05-26T19:09:25.976Z,8.15
2019-05-26T19:11:55.971Z,8.45
2019-05-26T19:14:30.221Z,6.95
2019-05-26T19:17:00.914Z,11.65
2019-05-26T19:19:31.863Z,8.60
2019-05-26T19:22:02.003Z,9.18
2019-05-26T19:24:32.107Z,5.55
2019-05-26T19:27:02.142Z,8.05
2019-05-26T19:29:32.287Z,5.70
2019-05-26T19:32:02.467Z,5.70
2019-05-26T19:34:32.536Z,7.33
2019-05-26T19:37:02.640Z,5.37
2019-05-26T19:39:32.783Z,6.83
2019-05-26T19:42:02.812Z,8.68
2019-05-26T19:44:32.925Z,10.20
2019-05-26T19:47:15.596Z,10.40
2019-05-26T19:49:45.631Z,8.73
2019-05-26T19:52:15.712Z,5.80
2019-05-26T19:54:45.804Z,5.70
2019-05-26T19:57:15.864Z,6.87
2019-05-26T19:59:45.967Z,7.42
2019-05-26T20:02:18.641Z,7.58
2019-05-26T20:04:47.791Z,8.03
2019-05-26T20:07:17.831Z,8.65
2019-05-26T20:09:47.974Z,8.60
2019-05-26T20:14:48.340Z,6.75
2019-05-26T20:17:18.372Z,9.35
2019-05-26T20:19:48.483Z,7.78
2019-05-26T20:22:18.551Z,7.20
2019-05-26T20:24:49.731Z,6.95
2019-05-26T20:27:19.691Z,6.97
2019-05-26T20:29:49.730Z,5.58
2019-05-26T20:32:19.802Z,5.62
2019-05-26T20:34:49.835Z,7.30
2019-05-26T20:37:19.875Z,7.55
2019-05-26T20:39:49.885Z,5.50
2019-05-26T20:42:19.995Z,7.05
2019-05-26T20:44:49.991Z,5.10
2019-05-26T20:47:21.737Z,8.83
2019-05-26T20:50:27.699Z,6.45
2019-05-26T20:52:43.048Z,5.78
2019-05-26T20:55:13.446Z,5.12
2019-05-26T20:57:43.518Z,4.97
2019-05-26T21:00:15.015Z,5.62
2019-05-26T21:02:45.459Z,5.40
2019-05-26T21:05:15.721Z,5.67
2019-05-26T21:07:45.842Z,4.80
2019-05-26T21:10:15.993Z,5.85
2019-05-26T21:12:46.195Z,7.22
2019-05-26T21:15:17.368Z,9.08
2019-05-26T21:17:47.389Z,8.28
2019-05-26T21:20:17.560Z,6.70
2019-05-26T21:22:47.616Z,6.25
2019-05-26T21:25:17.712Z,6.28
2019-05-26T21:27:47.780Z,9.25
2019-05-26T21:30:18.466Z,4.65
2019-05-26T21:32:48.912Z,5.58
2019-05-26T21:35:19.015Z,4.50
2019-05-26T21:37:49.015Z,7.35
2019-05-26T21:40:19.043Z,4.15
2019-05-26T21:42:49.124Z,9.75
2019-05-26T21:45:19.223Z,5.22
2019-05-26T21:47:49.164Z,5.70
2019-05-26T21:50:19.263Z,5.42
2019-05-26T21:52:49.373Z,7.58
2019-05-26T21:55:19.475Z,9.18
2019-05-26T21:57:49.580Z,4.95
2019-05-26T22:00:21.422Z,7.05
2019-05-26T22:02:53.159Z,6.30
2019-05-26T22:05:23.187Z,6.37
2019-05-26T22:07:53.390Z,6.05
2019-05-26T22:10:23.511Z,7.60
2019-05-26T22:12:53.539Z,8.68
2019-05-26T22:15:23.583Z,7.33
2019-05-26T22:17:53.660Z,5.60
2019-05-26T22:20:23.672Z,4.50
2019-05-26T22:22:53.771Z,4.83
2019-05-26T22:25:23.773Z,6.03
2019-05-26T22:27:53.803Z,9.13
2019-05-26T22:30:23.892Z,10.32
2019-05-26T22:32:54.004Z,6.58
2019-05-26T22:35:24.027Z,5.00
2019-05-26T22:37:54.067Z,5.20
2019-05-26T22:40:24.236Z,5.28
2019-05-26T22:42:54.378Z,5.80
2019-05-26T22:45:24.413Z,9.83
2019-05-26T22:47:55.759Z,8.00
2019-05-26T22:50:25.884Z,9.77
2019-05-26T22:52:55.888Z,7.20
2019-05-26T22:55:25.922Z,7.03
2019-05-26T22:57:55.931Z,10.55
2019-05-26T23:00:26.119Z,9.78
2019-05-26T23:02:56.192Z,8.03
2019-05-26T23:05:27.288Z,9.60
2019-05-26T23:07:57.283Z,11.20
2019-05-26T23:10:27.320Z,10.65
2019-05-26T23:12:57.308Z,7.75
2019-05-26T23:15:27.389Z,8.08
2019-05-26T23:17:57.723Z,8.13
2019-05-26T23:20:27.831Z,11.00
2019-05-26T23:22:57.867Z,12.78
2019-05-26T23:25:27.987Z,10.78
2019-05-26T23:27:58.000Z,12.03
2019-05-26T23:30:28.155Z,13.25
2019-05-26T23:32:58.087Z,11.93
2019-05-26T23:35:28.203Z,11.03
2019-05-26T23:37:58.181Z,9.35
2019-05-26T23:40:28.183Z,11.33
2019-05-26T23:42:58.304Z,12.70
2019-05-26T23:45:28.271Z,12.63
2019-05-26T23:47:58.373Z,12.88
2019-05-26T23:50:28.795Z,14.10
2019-05-26T23:52:58.808Z,10.53
2019-05-26T23:55:28.851Z,16.57
2019-05-26T23:57:58.864Z,11.57
